createdAt,value
2018-02-08T18:40:55.138Z,13.37
2018-02-08T18:43:23.275Z,13.23
2018-02-08T18:45:51.492Z,12.93
2018-02-08T18:48:19.654Z,12.90
2018-02-08T18:50:47.837Z,12.43
2018-02-08T18:53:15.975Z,12.40
2018-02-08T18:55:45.071Z,13.30
2018-02-08T18:58:13.417Z,13.53
2018-02-08T19:00:42.358Z,13.40
2018-02-08T19:03:10.546Z,13.40
2018-02-08T19:05:38.817Z,12.33
2018-02-08T19:08:07.114Z,13.67
2018-02-08T19:10:35.278Z,14.40
2018-02-08T19:13:03.415Z,13.57
2018-02-08T19:15:31.728Z,13.57
2018-02-08T19:18:00.012Z,12.97
2018-02-08T19:20:28.327Z,13.70
2018-02-08T19:22:56.498Z,13.97
2018-02-08T19:25:25.418Z,13.57
2018-02-08T19:27:53.548Z,14.43
2018-02-08T19:30:22.456Z,14.07
2018-02-08T19:32:51.480Z,13.47
2018-02-08T19:35:20.332Z,13.87
2018-02-08T19:37:49.375Z,14.53
2018-02-08T19:40:17.529Z,14.70
2018-02-08T19:42:45.691Z,14.20
2018-02-08T19:45:13.863Z,13.70
2018-02-08T19:47:42.871Z,15.10
2018-02-08T19:50:11.622Z,13.97
2018-02-08T19:52:40.534Z,14.53
2018-02-08T19:55:08.710Z,14.07
2018-02-08T19:57:36.901Z,14.43
2018-02-08T20:00:05.084Z,14.53
2018-02-08T20:02:33.264Z,14.13
2018-02-08T20:05:01.412Z,14.63
2018-02-08T20:07:29.619Z,14.53
2018-02-08T20:09:57.791Z,14.73
2018-02-08T20:12:25.938Z,14.77
2018-02-08T20:15:08.993Z,14.77
2018-02-08T20:17:38.653Z,15.17
2018-02-08T20:20:06.883Z,15.43
2018-02-08T20:22:35.084Z,14.80
2018-02-08T20:25:20.697Z,14.90
2018-02-08T20:27:48.973Z,14.20
2018-02-08T20:30:17.183Z,14.97
2018-02-08T20:32:45.393Z,15.53
2018-02-08T20:35:14.323Z,14.93
2018-02-08T20:37:42.469Z,14.57
2018-02-08T20:40:37.293Z,15.30
2018-02-08T20:43:11.082Z,15.33
2018-02-08T20:45:39.289Z,14.10
2018-02-08T20:48:07.541Z,14.93
2018-02-08T20:50:35.677Z,14.27
2018-02-08T20:53:04.626Z,14.80
2018-02-08T20:55:32.837Z,14.83
2018-02-08T20:58:00.994Z,15.40
2018-02-08T21:00:29.149Z,15.30
2018-02-08T21:02:57.301Z,15.70
2018-02-08T21:05:25.448Z,14.37
2018-02-08T21:07:54.380Z,14.43
2018-02-08T21:10:22.540Z,14.80
2018-02-08T21:12:50.690Z,15.20
2018-02-08T21:15:18.956Z,15.03
2018-02-08T21:17:47.927Z,14.93
2018-02-08T21:20:16.069Z,15.37
2018-02-08T21:22:44.220Z,14.73
2018-02-08T21:25:12.393Z,15.27
2018-02-08T21:27:40.537Z,14.43
2018-02-08T21:30:09.696Z,15.23
2018-02-08T21:32:37.920Z,12.93
2018-02-08T21:35:06.128Z,13.77
2018-02-08T21:37:34.295Z,14.30
2018-02-08T21:40:02.610Z,14.87
2018-02-08T21:42:31.013Z,15.80
2018-02-08T21:45:00.820Z,14.93
2018-02-08T21:47:29.731Z,14.63
2018-02-08T21:49:57.876Z,15.27
2018-02-08T21:52:26.026Z,15.23
2018-02-08T21:54:54.165Z,15.00
2018-02-08T21:57:22.458Z,14.97
2018-02-08T21:59:50.752Z,15.00
2018-02-08T22:02:18.888Z,15.23
2018-02-08T22:04:47.034Z,14.50
2018-02-08T22:07:15.365Z,14.90
2018-02-08T22:09:43.655Z,15.27
2018-02-08T22:12:11.791Z,15.00
2018-02-08T22:14:40.060Z,15.07
2018-02-08T22:17:08.287Z,14.97
2018-02-08T22:19:37.215Z,14.73
2018-02-08T22:22:05.478Z,14.93
2018-02-08T22:24:34.400Z,14.17
2018-02-08T22:27:02.672Z,14.40
2018-02-08T22:29:31.050Z,14.93
2018-02-08T22:31:59.195Z,15.07
2018-02-08T22:34:28.308Z,14.70
2018-02-08T22:36:56.577Z,14.47
2018-02-08T22:39:24.807Z,15.80
2018-02-08T22:41:52.959Z,14.63
2018-02-08T22:44:21.122Z,15.93
2018-02-08T22:46:49.366Z,14.77
2018-02-08T22:49:18.271Z,15.80
2018-02-08T22:51:47.232Z,15.40
2018-02-08T22:54:15.372Z,16.10
2018-02-08T22:56:43.507Z,16.33
2018-02-08T22:59:12.522Z,15.10
2018-02-08T23:01:40.685Z,16.13
2018-02-08T23:04:08.862Z,15.90
2018-02-08T23:06:37.125Z,15.50
2018-02-08T23:09:06.215Z,16.37
2018-02-08T23:11:35.689Z,15.27
2018-02-08T23:14:03.861Z,15.40
2018-02-08T23:16:32.176Z,16.03
2018-02-08T23:19:01.079Z,15.87
2018-02-08T23:21:29.225Z,16.43
2018-02-08T23:23:58.445Z,15.00
2018-02-08T23:26:26.602Z,16.03
2018-02-08T23:28:55.536Z,16.30
2018-02-08T23:31:23.669Z,16.30
2018-02-08T23:33:51.841Z,16.80
2018-02-08T23:36:20.143Z,16.43
2018-02-08T23:38:48.342Z,15.93
2018-02-08T23:41:16.586Z,16.47
2018-02-08T23:43:44.892Z,15.70
2018-02-08T23:46:13.030Z,16.10
2018-02-08T23:48:41.310Z,15.57
2018-02-08T23:51:09.593Z,16.57
2018-02-08T23:53:37.762Z,16.10
2018-02-08T23:56:06.727Z,16.27
2018-02-08T23:58:35.658Z,16.40
